Time;durP1;ratioP1;P1;durP2;ratioP2;P2;SDS_P1;SDS_P2;PMS_P1;PMS_P2;Temp;Humidity;BMP_temperature;BMP_pressure;BME280_temperature;BME280_humidity;BME280_pressure;Samples;Min_cycle;Max_cycle;Signal;HPM_P1;HPM_P2
2021/07/28 00:01:22;;;;;;;7.83;6.03;;;20.30;99.90;;;;;;5094407;28;20451;-75
2021/07/28 00:03:50;;;;;;;6.67;5.43;;;20.20;99.90;;;;;;5094769;28;20810;-76
2021/07/28 00:06:21;;;;;;;7.60;6.10;;;20.00;99.90;;;;;;5094397;28;20490;-76
2021/07/28 00:08:48;;;;;;;7.87;5.70;;;19.90;99.90;;;;;;5094251;28;20459;-75
2021/07/28 00:11:15;;;;;;;7.77;6.13;;;19.80;99.90;;;;;;5094506;28;20460;-76
2021/07/28 00:13:44;;;;;;;7.47;5.63;;;19.90;99.90;;;;;;5095077;28;20537;-76
2021/07/28 00:16:12;;;;;;;8.50;6.43;;;19.90;99.90;;;;;;5094141;28;21044;-76
2021/07/28 00:18:47;;;;;;;8.13;6.03;;;19.90;99.90;;;;;;5094048;28;20507;-76
2021/07/28 00:23:58;;;;;;;6.50;5.27;;;19.90;99.90;;;;;;5095308;28;20424;-76
2021/07/28 00:26:25;;;;;;;6.30;5.70;;;20.10;99.90;;;;;;5094045;28;20584;-76
2021/07/28 00:28:51;;;;;;;6.47;5.67;;;20.20;99.90;;;;;;5093712;28;20823;-76
2021/07/28 00:31:18;;;;;;;6.00;5.20;;;20.30;99.90;;;;;;5094414;28;20541;-76
2021/07/28 00:33:46;;;;;;;6.63;5.80;;;20.40;99.90;;;;;;5094069;28;20540;-75
2021/07/28 00:36:13;;;;;;;8.10;6.43;;;20.50;99.90;;;;;;5093677;28;20467;-75
2021/07/28 00:38:40;;;;;;;8.30;5.90;;;20.50;99.90;;;;;;5093614;28;20533;-74
2021/07/28 00:41:07;;;;;;;7.57;6.50;;;20.50;99.90;;;;;;5093562;28;20458;-74
2021/07/28 00:43:35;;;;;;;8.27;5.70;;;20.50;99.90;;;;;;5093566;28;20560;-73
2021/07/28 00:46:01;;;;;;;6.60;5.80;;;20.60;99.90;;;;;;5093207;28;20597;-73
2021/07/28 00:48:28;;;;;;;7.40;5.70;;;20.70;99.90;;;;;;5093051;28;20482;-76
2021/07/28 00:50:57;;;;;;;5.87;5.30;;;20.80;99.90;;;;;;5093438;28;20455;-76
2021/07/28 00:53:24;;;;;;;6.50;5.80;;;20.90;99.90;;;;;;5093679;28;20451;-76
2021/07/28 00:55:52;;;;;;;7.97;6.50;;;20.70;99.90;;;;;;5093252;28;20442;-75
2021/07/28 00:58:20;;;;;;;8.83;6.20;;;20.50;99.90;;;;;;5093064;28;20815;-75
2021/07/28 01:00:47;;;;;;;7.90;6.00;;;20.40;99.90;;;;;;5092963;28;20441;-76
2021/07/28 01:03:15;;;;;;;6.53;5.67;;;20.30;99.90;;;;;;5093291;28;20446;-76
2021/07/28 01:05:42;;;;;;;7.73;6.00;;;20.10;99.90;;;;;;5093101;28;20875;-75
2021/07/28 01:08:11;;;;;;;8.00;6.10;;;20.00;99.90;;;;;;5092634;28;20796;-74
2021/07/28 01:10:38;;;;;;;6.13;5.53;;;19.90;99.90;;;;;;5093422;28;20924;-73
2021/07/28 01:13:07;;;;;;;7.00;6.13;;;20.00;99.90;;;;;;5094718;28;20820;-75
2021/07/28 01:15:40;;;;;;;6.27;5.07;;;20.20;99.90;;;;;;5093754;28;20935;-73
2021/07/28 01:18:08;;;;;;;6.80;5.40;;;20.10;99.90;;;;;;5094473;28;20871;-72
2021/07/28 01:20:38;;;;;;;7.40;5.73;;;20.30;99.90;;;;;;5094161;28;20997;-72
2021/07/28 01:23:08;;;;;;;7.00;5.80;;;20.40;99.90;;;;;;5094421;28;20620;-73
2021/07/28 01:25:38;;;;;;;7.50;5.97;;;20.40;99.90;;;;;;5093812;28;20464;-73
2021/07/28 01:28:06;;;;;;;6.50;5.90;;;20.50;99.90;;;;;;5094408;28;20550;-71
2021/07/28 01:30:34;;;;;;;6.63;5.90;;;20.60;99.90;;;;;;5094116;28;20545;-72
2021/07/28 01:33:03;;;;;;;7.03;5.77;;;20.30;99.90;;;;;;5094021;28;20447;-72
2021/07/28 01:35:35;;;;;;;7.00;5.77;;;20.40;99.90;;;;;;5093801;28;20853;-72
2021/07/28 01:38:02;;;;;;;8.10;6.23;;;20.40;99.90;;;;;;5094457;28;20439;-72
2021/07/28 01:40:29;;;;;;;6.60;5.90;;;20.50;99.90;;;;;;5093598;28;20932;-72
2021/07/28 01:42:57;;;;;;;6.20;5.60;;;20.50;99.90;;;;;;5093776;28;20557;-72
2021/07/28 01:45:24;;;;;;;6.83;5.53;;;20.50;99.90;;;;;;5093482;28;21015;-72
2021/07/28 01:47:50;;;;;;;7.00;5.90;;;20.50;99.90;;;;;;5094163;28;20482;-72
2021/07/28 01:50:17;;;;;;;7.37;6.00;;;20.50;99.90;;;;;;5094135;28;20444;-72
2021/07/28 01:52:44;;;;;;;6.90;6.20;;;20.40;99.90;;;;;;5093734;28;20537;-72
2021/07/28 01:55:12;;;;;;;6.70;6.10;;;20.40;99.90;;;;;;5093493;28;20474;-72
2021/07/28 01:57:39;;;;;;;6.03;5.43;;;20.40;99.90;;;;;;5093853;28;20463;-72
2021/07/28 02:00:08;;;;;;;6.00;5.40;;;20.40;99.90;;;;;;5093914;28;20443;-72
2021/07/28 02:02:35;;;;;;;6.50;5.70;;;20.40;99.90;;;;;;5093986;28;20443;-72
2021/07/28 02:05:03;;;;;;;7.70;5.60;;;20.40;99.90;;;;;;5093681;28;20455;-72
2021/07/28 02:07:31;;;;;;;8.70;6.10;;;20.40;99.90;;;;;;5093178;28;20486;-72
2021/07/28 02:09:58;;;;;;;7.27;5.60;;;20.20;99.90;;;;;;5093639;28;20443;-72
2021/07/28 02:12:24;;;;;;;6.60;5.47;;;20.10;99.90;;;;;;5093761;28;20464;-72
2021/07/28 02:14:51;;;;;;;6.40;5.67;;;20.20;99.90;;;;;;5093303;28;20450;-73
2021/07/28 02:17:19;;;;;;;7.23;6.07;;;20.10;99.90;;;;;;5093596;28;20458;-72
2021/07/28 02:19:46;;;;;;;8.43;7.43;;;20.10;99.90;;;;;;5093865;28;20935;-72
2021/07/28 02:22:13;;;;;;;7.40;6.63;;;20.00;99.90;;;;;;5093266;28;20533;-72
2021/07/28 02:24:41;;;;;;;9.67;7.17;;;20.10;99.90;;;;;;5093966;28;20860;-72
2021/07/28 02:27:09;;;;;;;6.90;6.20;;;20.10;99.90;;;;;;5093524;28;20831;-72
2021/07/28 02:29:37;;;;;;;7.47;5.47;;;20.20;99.90;;;;;;5093693;28;20448;-72
2021/07/28 02:32:04;;;;;;;6.53;5.70;;;20.20;99.90;;;;;;5093754;28;20441;-72
2021/07/28 02:34:33;;;;;;;8.13;6.60;;;20.10;99.90;;;;;;5093763;28;20536;-72
2021/07/28 02:37:00;;;;;;;7.07;6.37;;;20.00;99.90;;;;;;5093269;28;20821;-72
2021/07/28 02:39:27;;;;;;;6.87;5.90;;;19.90;99.90;;;;;;5093475;28;20451;-72
2021/07/28 02:41:54;;;;;;;7.57;6.00;;;19.90;99.90;;;;;;5093400;28;20468;-72
2021/07/28 02:44:21;;;;;;;7.30;6.37;;;19.90;99.90;;;;;;5093574;28;20777;-72
2021/07/28 02:46:48;;;;;;;5.13;4.63;;;19.90;99.90;;;;;;5092719;28;20496;-72
2021/07/28 02:49:14;;;;;;;6.13;5.40;;;20.00;99.90;;;;;;5092979;28;20532;-72
2021/07/28 02:51:42;;;;;;;4.87;4.37;;;20.00;99.90;;;;;;5096157;28;20442;-72
2021/07/28 02:54:10;;;;;;;7.17;5.63;;;19.90;99.90;;;;;;5097516;28;20819;-72
2021/07/28 02:56:38;;;;;;;5.97;5.17;;;19.90;99.90;;;;;;5096704;28;20461;-72
2021/07/28 02:59:05;;;;;;;6.07;5.50;;;19.90;99.90;;;;;;5097192;28;20871;-72
2021/07/28 03:01:32;;;;;;;5.03;4.53;;;19.90;99.90;;;;;;5097089;28;20485;-72
2021/07/28 03:03:59;;;;;;;5.20;4.70;;;19.80;99.90;;;;;;5096664;28;20772;-72
2021/07/28 03:06:26;;;;;;;7.40;5.40;;;19.70;99.90;;;;;;5096024;28;20991;-72
2021/07/28 03:08:54;;;;;;;8.20;5.20;;;19.80;99.90;;;;;;5096635;28;20442;-72
2021/07/28 03:11:21;;;;;;;6.00;5.00;;;19.80;99.90;;;;;;5096834;28;20454;-72
2021/07/28 03:13:47;;;;;;;5.27;4.77;;;19.80;99.90;;;;;;5096845;28;20443;-72
2021/07/28 03:16:14;;;;;;;5.40;4.70;;;19.80;99.90;;;;;;5095967;28;20465;-72
2021/07/28 03:18:41;;;;;;;4.83;4.33;;;19.90;99.90;;;;;;5096173;28;20434;-72
2021/07/28 03:21:08;;;;;;;5.80;5.03;;;19.90;99.90;;;;;;5096456;28;20531;-72
2021/07/28 03:23:35;;;;;;;4.87;4.37;;;19.90;99.90;;;;;;5096507;28;20513;-72
2021/07/28 03:26:03;;;;;;;5.80;4.60;;;19.80;99.90;;;;;;5095921;28;20878;-72
2021/07/28 03:28:31;;;;;;;4.53;3.53;;;19.80;99.90;;;;;;5096475;28;20481;-72
2021/07/28 03:31:01;;;;;;;4.73;4.13;;;19.80;99.90;;;;;;5096127;28;20446;-72
2021/07/28 03:33:27;;;;;;;4.80;4.30;;;19.80;99.90;;;;;;5095971;28;20915;-72
2021/07/28 03:35:54;;;;;;;4.70;4.00;;;19.70;99.90;;;;;;5095721;28;20965;-72
2021/07/28 03:38:22;;;;;;;4.53;4.10;;;19.70;99.90;;;;;;5096482;28;20448;-72
2021/07/28 03:40:48;;;;;;;4.50;4.10;;;19.70;99.90;;;;;;5096316;28;20438;-72
2021/07/28 03:43:17;;;;;;;4.63;4.13;;;19.70;99.90;;;;;;5095783;28;20548;-72
2021/07/28 03:45:44;;;;;;;4.70;4.20;;;19.70;99.90;;;;;;5095691;28;20441;-72
2021/07/28 03:48:11;;;;;;;5.50;4.40;;;19.70;99.90;;;;;;5095755;28;20483;-72
2021/07/28 03:50:38;;;;;;;4.33;3.93;;;19.80;99.90;;;;;;5096367;28;20449;-72
2021/07/28 03:53:05;;;;;;;5.00;4.50;;;19.80;99.90;;;;;;5095682;28;20450;-72
2021/07/28 03:55:32;;;;;;;4.00;3.60;;;19.80;99.90;;;;;;5095669;28;20446;-71
2021/07/28 03:57:59;;;;;;;5.03;4.00;;;19.80;99.90;;;;;;5095475;28;20552;-71
2021/07/28 04:00:27;;;;;;;4.60;4.17;;;19.80;99.90;;;;;;5095678;28;20517;-72
2021/07/28 04:02:54;;;;;;;4.87;4.37;;;19.70;99.90;;;;;;5095714;28;20449;-72
2021/07/28 04:05:21;;;;;;;4.90;4.10;;;19.70;99.90;;;;;;5095460;28;20509;-72
2021/07/28 04:07:55;;;;;;;5.77;5.07;;;19.70;99.90;;;;;;5095917;28;20490;-72
2021/07/28 04:10:22;;;;;;;5.17;4.67;;;19.70;99.90;;;;;;5095791;28;20450;-72
2021/07/28 04:12:49;;;;;;;5.10;4.60;;;19.70;99.90;;;;;;5095375;28;20529;-72
2021/07/28 04:15:17;;;;;;;6.80;5.10;;;19.60;99.90;;;;;;5095166;28;20440;-72
2021/07/28 04:17:45;;;;;;;5.87;4.90;;;19.50;99.90;;;;;;5094841;28;20492;-72
2021/07/28 04:20:13;;;;;;;4.30;3.90;;;19.60;99.90;;;;;;5095482;28;20448;-72
2021/07/28 04:22:39;;;;;;;6.30;4.93;;;19.60;99.90;;;;;;5095492;28;20528;-72
2021/07/28 04:25:07;;;;;;;4.57;4.17;;;19.70;99.90;;;;;;5094799;28;20540;-72
2021/07/28 04:27:34;;;;;;;5.10;4.60;;;19.80;99.90;;;;;;5095248;28;20486;-72
2021/07/28 04:30:01;;;;;;;6.07;5.20;;;19.80;99.90;;;;;;5095159;28;20469;-72
2021/07/28 04:32:28;;;;;;;7.20;6.47;;;19.90;99.90;;;;;;5095124;28;20449;-72
2021/07/28 04:34:57;;;;;;;8.30;6.40;;;19.90;99.90;;;;;;5095087;28;20457;-72
2021/07/28 04:37:23;;;;;;;6.03;4.73;;;19.90;99.90;;;;;;5094774;28;20828;-72
2021/07/28 04:39:50;;;;;;;6.17;4.90;;;19.90;99.90;;;;;;5094920;28;20452;-72
2021/07/28 04:42:17;;;;;;;5.47;4.93;;;19.90;99.90;;;;;;5094669;28;20532;-73
2021/07/28 04:44:46;;;;;;;9.20;6.60;;;19.70;99.90;;;;;;5094918;28;20450;-73
2021/07/28 04:47:13;;;;;;;7.23;6.00;;;19.80;99.90;;;;;;5094369;28;20481;-72
2021/07/28 04:49:39;;;;;;;4.50;4.10;;;19.80;99.90;;;;;;5094980;28;20450;-72
2021/07/28 04:52:09;;;;;;;5.97;5.37;;;19.80;99.90;;;;;;5094306;28;20815;-72
2021/07/28 04:54:36;;;;;;;5.00;4.50;;;19.80;99.90;;;;;;5094639;28;20445;-72
2021/07/28 04:57:03;;;;;;;4.67;4.27;;;19.90;99.90;;;;;;5094263;28;20497;-72
2021/07/28 04:59:30;;;;;;;5.60;5.00;;;19.80;99.90;;;;;;5094732;28;20443;-72
2021/07/28 05:01:56;;;;;;;5.63;5.00;;;19.70;99.90;;;;;;5095025;28;20445;-72
2021/07/28 05:04:23;;;;;;;6.17;5.43;;;19.60;99.90;;;;;;5094793;28;20823;-72
2021/07/28 05:06:50;;;;;;;5.77;5.17;;;19.60;99.90;;;;;;5094201;28;20555;-72
2021/07/28 05:09:19;;;;;;;5.87;5.10;;;19.70;99.90;;;;;;5094458;28;20449;-72
2021/07/28 05:11:46;;;;;;;6.20;5.07;;;19.70;99.90;;;;;;5094554;28;20452;-72
2021/07/28 05:14:13;;;;;;;5.40;4.80;;;19.70;99.90;;;;;;5094038;28;20447;-72
2021/07/28 05:16:40;;;;;;;6.20;5.20;;;19.60;99.90;;;;;;5093941;28;20555;-72
2021/07/28 05:19:07;;;;;;;5.63;5.00;;;19.50;99.90;;;;;;5094572;28;20441;-72
2021/07/28 05:21:34;;;;;;;6.27;5.40;;;19.50;99.90;;;;;;5093944;28;20531;-72
2021/07/28 05:24:00;;;;;;;6.17;5.00;;;19.50;99.90;;;;;;5094239;28;20441;-72
2021/07/28 05:26:29;;;;;;;6.17;5.20;;;19.50;99.90;;;;;;5093773;28;20469;-72
2021/07/28 05:28:55;;;;;;;5.97;4.90;;;19.70;99.90;;;;;;5094527;28;20818;-72
2021/07/28 05:31:22;;;;;;;6.60;5.53;;;19.80;99.90;;;;;;5093911;28;20803;-72
2021/07/28 05:33:49;;;;;;;5.67;5.07;;;19.80;99.90;;;;;;5093928;28;20531;-72
2021/07/28 05:36:16;;;;;;;7.17;5.47;;;19.90;99.90;;;;;;5093510;28;20471;-72
2021/07/28 05:38:43;;;;;;;6.30;4.90;;;20.00;99.90;;;;;;5094101;28;20549;-72
2021/07/28 05:41:09;;;;;;;7.27;6.20;;;20.10;99.90;;;;;;5094129;28;20438;-72
2021/07/28 05:43:38;;;;;;;7.47;5.90;;;20.10;99.90;;;;;;5093544;28;20557;-72
2021/07/28 05:46:04;;;;;;;6.30;5.50;;;19.90;99.90;;;;;;5093547;28;20536;-72
2021/07/28 05:48:32;;;;;;;6.00;5.40;;;19.90;99.90;;;;;;5093755;28;20485;-72
2021/07/28 05:50:59;;;;;;;6.20;5.20;;;20.00;99.90;;;;;;5093854;28;20446;-72
2021/07/28 05:53:26;;;;;;;7.40;5.30;;;20.00;99.90;;;;;;5093765;28;20549;-71
2021/07/28 05:55:55;;;;;;;5.70;5.10;;;20.00;99.90;;;;;;5093427;28;20556;-72
2021/07/28 05:58:21;;;;;;;6.83;4.73;;;19.90;99.90;;;;;;5094069;28;20443;-72
2021/07/28 06:00:50;;;;;;;6.23;5.13;;;20.00;99.90;;;;;;5094064;28;20545;-72
2021/07/28 06:03:17;;;;;;;6.00;5.40;;;20.00;99.90;;;;;;5093757;28;20528;-72
2021/07/28 06:05:43;;;;;;;6.80;4.80;;;20.00;99.90;;;;;;5093358;28;20529;-72
2021/07/28 06:08:10;;;;;;;6.70;5.40;;;20.00;99.90;;;;;;5094008;28;20854;-72
2021/07/28 06:10:37;;;;;;;6.17;5.47;;;20.00;99.90;;;;;;5093893;28;20446;-72
2021/07/28 06:13:04;;;;;;;5.67;5.07;;;20.10;99.90;;;;;;5093886;28;20477;-72
2021/07/28 06:15:31;;;;;;;5.70;5.10;;;20.30;99.90;;;;;;5093418;28;20477;-72
2021/07/28 06:17:59;;;;;;;7.00;5.00;;;20.30;99.90;;;;;;5093547;28;20550;-72
2021/07/28 06:20:26;;;;;;;5.40;4.80;;;20.30;99.90;;;;;;5093709;28;20844;-72
2021/07/28 06:22:53;;;;;;;5.30;4.63;;;20.30;99.90;;;;;;5093752;28;20442;-72
2021/07/28 06:25:20;;;;;;;5.40;4.67;;;20.30;99.90;;;;;;5094312;28;20790;-72
2021/07/28 06:27:49;;;;;;;5.83;5.23;;;20.40;99.90;;;;;;5097669;28;20573;-72
2021/07/28 06:30:16;;;;;;;5.23;4.40;;;20.50;99.90;;;;;;5097405;28;20789;-72
2021/07/28 06:32:45;;;;;;;4.47;4.07;;;20.60;99.90;;;;;;5097426;28;20444;-72
2021/07/28 06:35:14;;;;;;;4.90;3.87;;;20.60;99.90;;;;;;5097153;28;20520;-72
2021/07/28 06:37:41;;;;;;;5.80;4.40;;;20.60;99.90;;;;;;5097119;28;20463;-72
2021/07/28 06:40:09;;;;;;;5.00;4.30;;;20.60;99.90;;;;;;5097508;28;20924;-72
2021/07/28 06:42:36;;;;;;;4.10;3.80;;;20.60;99.90;;;;;;5096894;28;20451;-72
2021/07/28 06:45:03;;;;;;;4.47;4.07;;;20.60;99.90;;;;;;5096702;28;20449;-72
2021/07/28 06:47:29;;;;;;;4.40;3.97;;;20.60;99.90;;;;;;5097240;28;20471;-72
2021/07/28 06:49:56;;;;;;;6.23;4.60;;;20.60;99.90;;;;;;5097212;28;20537;-72
2021/07/28 06:52:24;;;;;;;4.40;4.00;;;20.50;99.90;;;;;;5097181;28;20481;-72
2021/07/28 06:54:51;;;;;;;4.00;3.60;;;20.50;99.90;;;;;;5097052;28;20533;-72
2021/07/28 06:57:18;;;;;;;4.80;4.10;;;20.50;99.90;;;;;;5096837;28;20466;-72
2021/07/28 06:59:45;;;;;;;5.20;4.70;;;20.40;99.90;;;;;;5096934;28;20445;-72
2021/07/28 07:02:11;;;;;;;4.57;4.17;;;20.30;99.90;;;;;;5096908;28;20450;-72
2021/07/28 07:04:38;;;;;;;6.73;4.57;;;20.30;99.90;;;;;;5097023;28;20785;-72
2021/07/28 07:07:05;;;;;;;4.53;4.13;;;20.40;99.90;;;;;;5096773;28;20473;-72
2021/07/28 07:09:33;;;;;;;5.10;4.50;;;20.20;99.90;;;;;;5096919;28;20489;-72
2021/07/28 07:12:00;;;;;;;5.40;4.57;;;20.20;99.90;;;;;;5096505;28;20476;-72
2021/07/28 07:14:29;;;;;;;5.10;4.40;;;20.20;99.90;;;;;;5096451;28;20446;-72
2021/07/28 07:16:56;;;;;;;6.17;4.53;;;20.20;99.90;;;;;;5096322;28;20984;-71
2021/07/28 07:19:24;;;;;;;4.70;4.20;;;20.20;99.90;;;;;;5096561;28;20445;-72
2021/07/28 07:21:50;;;;;;;5.37;4.40;;;20.20;99.90;;;;;;5096686;28;20443;-72
2021/07/28 07:24:17;;;;;;;5.73;4.40;;;20.20;99.90;;;;;;5096115;28;20451;-72
2021/07/28 07:26:46;;;;;;;5.40;4.30;;;20.20;99.90;;;;;;5096177;28;20466;-72
2021/07/28 07:29:12;;;;;;;5.23;4.60;;;20.10;99.90;;;;;;5081479;28;20483;-72
2021/07/28 07:31:41;;;;;;;5.13;4.30;;;20.00;99.90;;;;;;5094087;28;21020;-73
2021/07/28 07:34:08;;;;;;;5.17;4.57;;;19.90;99.90;;;;;;5094841;28;20450;-72
2021/07/28 07:36:35;;;;;;;5.17;4.40;;;19.90;99.90;;;;;;5094050;28;21066;-72
2021/07/28 07:39:02;;;;;;;5.10;4.60;;;20.00;99.90;;;;;;5094837;28;21057;-72
2021/07/28 07:41:29;;;;;;;4.60;4.17;;;19.90;99.90;;;;;;5094541;28;20477;-72
2021/07/28 07:43:58;;;;;;;5.40;4.27;;;20.00;99.90;;;;;;5094284;28;20483;-72
2021/07/28 07:46:25;;;;;;;5.27;4.77;;;20.00;99.90;;;;;;5094492;28;20477;-72
2021/07/28 07:48:52;;;;;;;5.10;4.57;;;20.10;99.90;;;;;;5094351;28;20474;-72
2021/07/28 07:51:19;;;;;;;4.87;4.03;;;20.20;99.90;;;;;;5094137;28;20955;-73
2021/07/28 07:53:45;;;;;;;4.70;4.17;;;20.10;99.90;;;;;;5094303;28;20475;-73
2021/07/28 07:56:12;;;;;;;4.60;4.10;;;20.20;99.90;;;;;;5094238;28;20469;-73
2021/07/28 07:58:39;;;;;;;5.07;4.57;;;20.10;99.90;;;;;;5094301;28;20451;-72
2021/07/28 08:01:08;;;;;;;4.87;4.37;;;20.10;99.90;;;;;;5094065;28;20450;-75
2021/07/28 08:03:35;;;;;;;5.13;4.67;;;20.10;99.90;;;;;;5093931;28;20454;-75
2021/07/28 08:06:02;;;;;;;6.50;4.97;;;20.10;99.90;;;;;;5094217;28;20469;-75
2021/07/28 08:08:29;;;;;;;5.67;4.80;;;20.10;99.90;;;;;;5094392;28;20478;-76
2021/07/28 08:10:56;;;;;;;4.83;4.33;;;20.10;99.90;;;;;;5094261;28;20537;-76
2021/07/28 08:13:23;;;;;;;6.00;4.33;;;20.00;99.90;;;;;;5093950;28;20502;-74
2021/07/28 08:15:50;;;;;;;5.23;4.50;;;20.00;99.90;;;;;;5093600;28;20461;-76
2021/07/28 08:18:19;;;;;;;6.60;4.50;;;20.00;99.90;;;;;;5094055;28;20447;-73
2021/07/28 08:20:46;;;;;;;5.47;4.87;;;20.00;99.90;;;;;;5093837;28;20447;-74
2021/07/28 08:23:13;;;;;;;4.70;4.10;;;20.00;99.90;;;;;;5094849;28;20982;-72
2021/07/28 08:25:40;;;;;;;6.00;4.83;;;20.00;99.90;;;;;;5094662;28;20453;-72
2021/07/28 08:28:07;;;;;;;5.60;4.60;;;19.90;99.90;;;;;;5095583;28;20447;-72
2021/07/28 08:30:34;;;;;;;6.30;4.90;;;19.90;99.90;;;;;;5095407;28;20537;-72
2021/07/28 08:33:01;;;;;;;6.00;4.70;;;19.80;99.90;;;;;;5094923;28;20534;-72
2021/07/28 08:35:29;;;;;;;5.63;4.53;;;19.80;99.90;;;;;;5094666;28;20537;-72
2021/07/28 08:37:56;;;;;;;5.80;4.10;;;19.90;99.90;;;;;;5095176;28;20469;-72
2021/07/28 08:40:23;;;;;;;4.93;4.43;;;19.80;99.90;;;;;;5095004;28;20447;-73
2021/07/28 08:42:50;;;;;;;5.73;4.90;;;19.80;99.90;;;;;;5094650;28;20461;-72
2021/07/28 08:45:18;;;;;;;5.13;4.53;;;19.80;99.90;;;;;;5094843;28;20807;-73
2021/07/28 08:47:45;;;;;;;4.50;4.10;;;19.90;99.90;;;;;;5094146;28;20814;-72
2021/07/28 08:50:13;;;;;;;5.37;4.10;;;19.90;99.90;;;;;;5094718;28;20485;-72
2021/07/28 08:52:42;;;;;;;6.17;4.90;;;19.90;99.90;;;;;;5094850;28;20450;-72
2021/07/28 08:55:10;;;;;;;6.10;5.37;;;20.00;99.90;;;;;;5094508;28;20448;-73
2021/07/28 08:57:37;;;;;;;7.47;4.97;;;19.90;99.90;;;;;;5094818;28;20467;-72
2021/07/28 09:00:07;;;;;;;6.90;4.97;;;20.00;99.90;;;;;;5094445;28;20918;-73
2021/07/28 09:02:33;;;;;;;5.90;4.30;;;20.10;99.90;;;;;;5094497;28;20823;-72
2021/07/28 09:05:00;;;;;;;4.80;4.30;;;20.00;99.90;;;;;;5094376;28;20443;-73
2021/07/28 09:07:27;;;;;;;6.07;4.63;;;20.20;99.90;;;;;;5094352;28;20477;-73
2021/07/28 09:09:57;;;;;;;4.43;4.03;;;20.20;99.90;;;;;;5094506;28;21021;-73
2021/07/28 09:12:32;;;;;;;6.80;4.60;;;20.30;99.90;;;;;;5094681;28;20439;-72
2021/07/28 09:15:02;;;;;;;4.83;4.40;;;20.40;99.90;;;;;;5094205;28;20447;-72
2021/07/28 09:17:30;;;;;;;22.07;8.73;;;20.50;99.90;;;;;;5094225;28;20493;-72
2021/07/28 09:19:58;;;;;;;6.20;4.90;;;20.60;99.90;;;;;;5094462;28;20443;-72
2021/07/28 09:22:31;;;;;;;5.20;4.20;;;20.70;99.90;;;;;;5094519;28;20447;-73
2021/07/28 09:25:13;;;;;;;5.23;4.63;;;20.90;99.90;;;;;;5094398;28;20857;-73
2021/07/28 09:27:46;;;;;;;6.10;4.60;;;21.10;99.90;;;;;;5094288;28;20476;-72
2021/07/28 09:30:16;;;;;;;4.93;4.47;;;21.30;99.90;;;;;;5093732;28;20992;-73
2021/07/28 09:33:00;;;;;;;5.37;4.40;;;21.40;99.90;;;;;;5094300;28;20530;-73
2021/07/28 09:36:11;;;;;;;4.30;3.90;;;21.60;99.90;;;;;;5093663;28;20530;-72
2021/07/28 09:38:45;;;;;;;4.13;3.57;;;21.70;99.90;;;;;;5094427;28;20439;-73
2021/07/28 09:41:17;;;;;;;4.70;3.60;;;21.90;99.90;;;;;;5094290;28;20770;-72
2021/07/28 09:43:49;;;;;;;4.03;3.63;;;22.00;99.90;;;;;;5093669;28;20868;-72
2021/07/28 09:46:27;;;;;;;6.17;4.20;;;22.00;99.90;;;;;;5093322;28;20468;-72
2021/07/28 09:48:54;;;;;;;3.93;3.40;;;22.10;99.90;;;;;;5093799;28;20474;-73
2021/07/28 09:51:25;;;;;;;4.13;3.73;;;22.10;99.90;;;;;;5094094;28;20446;-73
2021/07/28 09:53:57;;;;;;;3.83;3.50;;;22.10;99.90;;;;;;5094098;28;20452;-73
2021/07/28 09:56:44;;;;;;;4.60;3.70;;;22.40;99.90;;;;;;5093336;28;20945;-73
2021/07/28 09:59:11;;;;;;;4.77;3.90;;;22.90;99.90;;;;;;5094664;28;20468;-73
2021/07/28 10:01:38;;;;;;;3.63;3.33;;;23.40;99.90;;;;;;5098053;28;20444;-73
2021/07/28 10:04:06;;;;;;;3.97;3.60;;;23.60;99.90;;;;;;5098194;28;20438;-73
2021/07/28 10:06:40;;;;;;;3.80;3.50;;;24.10;99.90;;;;;;5097387;28;20995;-72
2021/07/28 10:09:09;;;;;;;3.87;3.47;;;24.60;99.90;;;;;;5097803;28;20526;-73
2021/07/28 10:11:39;;;;;;;3.60;3.30;;;25.00;99.90;;;;;;5097902;28;20451;-72
2021/07/28 10:14:06;;;;;;;3.43;3.13;;;25.40;99.90;;;;;;5097822;28;20993;-73
2021/07/28 10:16:33;;;;;;;3.30;3.10;;;25.80;99.90;;;;;;5097250;28;20474;-72
2021/07/28 10:19:02;;;;;;;3.90;3.50;;;25.70;99.90;;;;;;5098222;28;20537;-72
2021/07/28 10:21:32;;;;;;;4.33;3.50;;;25.40;99.90;;;;;;5097502;28;20444;-72
2021/07/28 10:23:59;;;;;;;3.60;3.10;;;24.90;99.90;;;;;;5097435;28;20488;-73
2021/07/28 10:26:26;;;;;;;3.77;3.47;;;24.60;99.90;;;;;;5097235;28;20548;-72
2021/07/28 10:28:55;;;;;;;4.13;3.33;;;24.20;99.90;;;;;;5097048;28;20998;-72
2021/07/28 10:31:24;;;;;;;3.97;3.50;;;24.00;99.90;;;;;;5097786;28;20507;-73
2021/07/28 10:33:52;;;;;;;4.20;3.80;;;23.80;99.90;;;;;;5097259;28;20442;-73
2021/07/28 10:36:20;;;;;;;3.60;3.30;;;23.70;99.90;;;;;;5096861;28;20553;-72
2021/07/28 10:38:55;;;;;;;3.83;3.53;;;23.50;99.90;;;;;;5097577;28;20441;-73
2021/07/28 10:41:48;;;;;;;3.73;3.43;;;23.40;99.90;;;;;;5097461;28;20534;-73
2021/07/28 10:44:22;;;;;;;3.20;3.00;;;23.40;99.90;;;;;;5096758;28;20529;-72
2021/07/28 10:47:13;;;;;;;3.57;3.27;;;23.30;99.90;;;;;;5096850;28;20453;-73
2021/07/28 10:49:49;;;;;;;5.50;4.20;;;23.10;99.90;;;;;;5082172;28;20476;-72
2021/07/28 10:52:44;;;;;;;6.50;5.50;;;23.00;99.90;;;;;;5097390;28;20534;-73
2021/07/28 10:55:24;;;;;;;4.67;3.70;;;22.90;99.90;;;;;;5094727;28;20458;-72
2021/07/28 10:58:23;;;;;;;3.70;3.20;;;23.10;99.90;;;;;;5096967;28;20471;-72
2021/07/28 11:00:54;;;;;;;3.63;3.33;;;23.70;99.90;;;;;;5097268;28;20976;-72
2021/07/28 11:03:28;;;;;;;3.73;3.17;;;23.90;99.90;;;;;;5096685;28;21117;-73
2021/07/28 11:06:15;;;;;;;3.30;3.00;;;23.90;99.90;;;;;;5096416;28;20539;-73
2021/07/28 11:08:42;;;;;;;4.50;3.53;;;23.80;99.90;;;;;;5097323;28;20814;-72
2021/07/28 11:11:08;;;;;;;4.53;4.10;;;23.50;99.90;;;;;;5095792;28;20879;-72
2021/07/28 11:13:35;;;;;;;3.50;3.17;;;23.30;99.90;;;;;;5096626;28;20531;-72
2021/07/28 11:16:06;;;;;;;3.70;3.40;;;23.20;99.90;;;;;;5096328;28;20468;-72
2021/07/28 11:18:37;;;;;;;3.53;3.23;;;23.20;99.90;;;;;;5096929;28;20443;-73
2021/07/28 11:21:08;;;;;;;3.40;3.03;;;23.30;99.90;;;;;;5096684;28;20776;-73
2021/07/28 11:23:40;;;;;;;3.60;3.27;;;23.60;99.90;;;;;;5096703;28;20453;-72
2021/07/28 11:26:14;;;;;;;3.43;3.13;;;23.80;99.90;;;;;;5095870;28;20467;-73
2021/07/28 11:28:41;;;;;;;3.80;3.33;;;24.00;99.90;;;;;;5096277;28;20446;-72
2021/07/28 11:31:09;;;;;;;3.00;2.70;;;24.30;99.90;;;;;;5096237;28;20489;-72
2021/07/28 11:33:37;;;;;;;3.40;3.10;;;24.40;99.90;;;;;;5096434;28;20466;-72
2021/07/28 11:36:05;;;;;;;3.27;3.00;;;24.60;99.90;;;;;;5095807;28;20471;-72
2021/07/28 11:38:34;;;;;;;3.80;3.50;;;24.70;99.90;;;;;;5096061;28;20547;-72
2021/07/28 11:41:01;;;;;;;3.63;3.27;;;24.70;99.90;;;;;;5095949;28;20939;-73
2021/07/28 11:43:30;;;;;;;4.33;3.60;;;24.50;99.90;;;;;;5095878;28;20913;-73
2021/07/28 11:45:58;;;;;;;4.57;3.33;;;24.40;99.90;;;;;;5095868;28;20498;-72
2021/07/28 11:48:30;;;;;;;3.53;3.20;;;24.30;99.90;;;;;;5096523;28;20443;-72
2021/07/28 11:50:57;;;;;;;3.80;3.50;;;24.20;99.90;;;;;;5095686;28;20486;-72
2021/07/28 11:53:25;;;;;;;3.70;3.40;;;24.20;99.90;;;;;;5095683;28;20451;-73
2021/07/28 11:55:53;;;;;;;4.10;3.70;;;24.40;99.90;;;;;;5095456;28;20455;-72
2021/07/28 11:58:20;;;;;;;3.27;2.73;;;24.50;99.90;;;;;;5095832;28;20552;-72
2021/07/28 12:00:48;;;;;;;3.90;3.60;;;24.40;99.90;;;;;;5095530;28;20535;-72
2021/07/28 12:03:25;;;;;;;3.53;3.10;;;24.40;99.90;;;;;;5095928;28;20796;-73
2021/07/28 12:06:03;;;;;;;4.00;3.60;;;24.40;99.90;;;;;;5095367;28;20504;-72
2021/07/28 12:08:32;;;;;;;3.87;3.47;;;24.50;99.90;;;;;;5095972;28;20864;-73
2021/07/28 12:11:06;;;;;;;3.73;3.40;;;24.60;99.90;;;;;;5095643;28;20489;-73
2021/07/28 12:13:40;;;;;;;5.37;4.83;;;24.50;99.90;;;;;;5095920;28;20518;-73
2021/07/28 12:16:07;;;;;;;3.73;3.43;;;24.40;99.90;;;;;;5094930;28;20474;-73
2021/07/28 12:18:41;;;;;;;4.47;3.50;;;24.10;99.90;;;;;;5095591;28;20453;-72
2021/07/28 12:21:09;;;;;;;4.87;3.30;;;24.10;99.90;;;;;;5095488;28;20434;-72
2021/07/28 12:23:37;;;;;;;4.00;3.23;;;24.10;99.90;;;;;;5094390;28;20462;-72
2021/07/28 12:26:03;;;;;;;4.50;3.50;;;24.30;99.90;;;;;;5094876;28;20467;-72
2021/07/28 12:28:50;;;;;;;3.97;3.57;;;24.50;99.90;;;;;;5095131;28;20453;-72
2021/07/28 12:31:27;;;;;;;3.90;3.60;;;24.50;99.90;;;;;;5095136;28;20570;-73
2021/07/28 12:33:54;;;;;;;3.00;2.70;;;24.50;99.90;;;;;;5095212;28;20539;-72
2021/07/28 12:36:29;;;;;;;3.47;3.17;;;24.50;99.90;;;;;;5094835;28;20473;-72
2021/07/28 12:38:56;;;;;;;3.77;3.33;;;24.60;99.90;;;;;;5094888;28;20447;-72
2021/07/28 12:41:24;;;;;;;4.27;3.90;;;24.60;99.90;;;;;;5094919;28;20436;-72
2021/07/28 12:43:52;;;;;;;4.20;3.80;;;24.70;99.90;;;;;;5094704;28;20790;-72
2021/07/28 12:46:19;;;;;;;3.77;2.90;;;25.00;99.90;;;;;;5094466;28;20464;-72
2021/07/28 12:48:46;;;;;;;3.47;3.17;;;25.20;99.80;;;;;;5094890;28;20527;-72
2021/07/28 12:51:14;;;;;;;3.60;3.27;;;25.40;98.90;;;;;;5094986;28;20486;-72
2021/07/28 12:53:42;;;;;;;3.50;2.97;;;25.50;97.50;;;;;;5094729;28;20824;-72
2021/07/28 12:56:09;;;;;;;3.50;3.20;;;25.70;98.20;;;;;;5094329;28;20897;-72
2021/07/28 12:58:35;;;;;;;2.90;2.67;;;25.70;97.70;;;;;;5094935;28;20480;-72